Lawrence, Kansas
Current Conditions -  °F | °C
As of 2:52 AM on Wednesday 26 Nov 2014 (Local Time) from KLWC Reporting Station
Light Rain Light Rain  
Wind Chill: 36°   Ceiling: 3700
Heat Index: 41°   Visibility: 10mi
Dew Point: 26°   Wind: 7mph
Humidity: 55%   Direction: 250°WSW
Pressure: 29.95"   Gusts: NA
Location:  38.97°N, 95.24°W
Report Text: KLWC 260852Z AUTO 25006KT 10SM -RA OVC037 05/M03 A2995 RMK AO2 RAB35 SLP146 P0000 60000 T00501033 55007
Loading
Personal Weather Stations






























Interactive Weather Map New forecast layout! Learn more

10-Day Weather Forecast

Advertisements
Track Severe Weather on mobile